createdAt,value
2019-02-26T00:00:44.858Z,6.95
2019-02-26T00:02:08.486Z,6.33
2019-02-26T00:03:35.395Z,6.45
2019-02-26T00:05:03.443Z,5.70
2019-02-26T00:06:30.020Z,7.17
2019-02-26T00:07:56.130Z,6.40
2019-02-26T00:09:22.608Z,5.85
2019-02-26T00:10:50.255Z,6.62
2019-02-26T00:12:15.812Z,5.20
2019-02-26T00:13:41.321Z,5.67
2019-02-26T00:15:08.221Z,5.72
2019-02-26T00:16:37.680Z,5.90
2019-02-26T00:18:00.657Z,6.12
2019-02-26T00:19:26.193Z,5.30
2019-02-26T00:20:51.604Z,5.87
2019-02-26T00:22:18.235Z,6.95
2019-02-26T00:23:44.389Z,7.35
2019-02-26T00:25:12.651Z,6.45
2019-02-26T00:26:38.493Z,6.50
2019-02-26T00:28:05.173Z,7.15
2019-02-26T00:29:32.137Z,6.33
2019-02-26T00:30:59.329Z,6.70
2019-02-26T00:32:24.763Z,7.00
2019-02-26T00:33:50.218Z,6.40
2019-02-26T00:35:16.466Z,7.00
2019-02-26T00:36:42.775Z,5.95
2019-02-26T00:38:09.035Z,6.55
2019-02-26T00:39:35.361Z,5.40
2019-02-26T00:41:02.214Z,5.12
2019-02-26T00:42:28.854Z,6.20
2019-02-26T00:43:55.355Z,7.15
2019-02-26T00:45:27.227Z,6.47
2019-02-26T00:46:53.602Z,5.72
2019-02-26T00:48:19.428Z,5.83
2019-02-26T00:49:46.314Z,6.47
2019-02-26T00:51:11.891Z,5.75
2019-02-26T00:52:39.143Z,6.12
2019-02-26T00:54:04.421Z,5.80
2019-02-26T00:55:32.009Z,5.40
2019-02-26T00:56:59.053Z,5.60
2019-02-26T00:58:23.912Z,5.03
2019-02-26T00:59:49.298Z,6.33
2019-02-26T01:01:16.768Z,6.10
2019-02-26T01:02:42.117Z,5.40
2019-02-26T01:04:08.762Z,4.10
2019-02-26T01:05:36.135Z,4.15
2019-02-26T01:07:03.140Z,4.65
2019-02-26T01:08:28.371Z,4.60
2019-02-26T01:09:54.680Z,6.28
2019-02-26T01:11:21.618Z,4.97
2019-02-26T01:12:48.154Z,5.20
2019-02-26T01:14:14.059Z,4.50
2019-02-26T01:15:40.731Z,4.47
2019-02-26T01:17:08.137Z,4.35
2019-02-26T01:18:33.282Z,4.15
2019-02-26T01:20:00.498Z,4.67
2019-02-26T01:21:28.178Z,4.83
2019-02-26T01:22:52.826Z,4.50
2019-02-26T01:24:18.267Z,5.58
2019-02-26T01:25:43.711Z,5.00
2019-02-26T01:27:09.136Z,4.97
2019-02-26T01:28:34.622Z,4.78
2019-02-26T01:30:00.414Z,5.03
2019-02-26T01:31:29.071Z,4.97
2019-02-26T01:32:57.588Z,4.30
2019-02-26T01:34:21.386Z,4.60
2019-02-26T01:35:47.002Z,4.00
2019-02-26T01:37:12.436Z,4.33
2019-02-26T01:38:41.544Z,5.37
2019-02-26T01:40:07.320Z,4.53
2019-02-26T01:41:32.515Z,4.10
2019-02-26T01:43:00.211Z,4.40
2019-02-26T01:44:28.072Z,5.42
2019-02-26T01:45:54.950Z,4.05
2019-02-26T01:47:19.588Z,4.53
2019-02-26T01:48:46.238Z,4.12
2019-02-26T01:50:13.496Z,4.65
2019-02-26T01:51:39.305Z,4.08
2019-02-26T01:53:04.752Z,4.17
2019-02-26T01:54:31.303Z,4.00
2019-02-26T01:55:57.315Z,4.20
2019-02-26T01:57:22.751Z,3.85
2019-02-26T01:58:56.372Z,3.92
2019-02-26T02:00:16.495Z,3.83
2019-02-26T02:01:44.180Z,3.33
2019-02-26T02:03:08.945Z,3.47
2019-02-26T02:04:36.637Z,4.15
2019-02-26T02:06:01.579Z,4.17
2019-02-26T02:07:28.849Z,3.52
2019-02-26T02:08:55.720Z,3.65
2019-02-26T02:10:21.467Z,4.67
2019-02-26T02:11:46.922Z,3.80
2019-02-26T02:13:12.502Z,4.20
2019-02-26T02:14:37.953Z,3.62
2019-02-26T02:16:04.547Z,4.35
2019-02-26T02:17:30.935Z,4.17
2019-02-26T02:18:58.265Z,3.95
2019-02-26T02:20:24.691Z,3.87
2019-02-26T02:21:51.517Z,3.77
2019-02-26T02:23:18.889Z,3.72
2019-02-26T02:24:46.190Z,4.65
2019-02-26T02:26:13.362Z,3.40
2019-02-26T02:27:38.708Z,4.20
2019-02-26T02:29:04.173Z,4.10
2019-02-26T02:30:31.413Z,4.37
2019-02-26T02:31:59.432Z,4.70
2019-02-26T02:33:26.372Z,4.03
2019-02-26T02:34:50.772Z,4.05
2019-02-26T02:36:17.730Z,3.90
2019-02-26T02:37:43.264Z,3.85
2019-02-26T02:39:12.949Z,4.10
2019-02-26T02:40:39.883Z,3.65
2019-02-26T02:42:03.220Z,4.92
2019-02-26T02:43:28.594Z,5.22
2019-02-26T02:44:54.001Z,4.85
2019-02-26T02:46:19.451Z,4.42
2019-02-26T02:47:44.915Z,3.90
2019-02-26T02:49:12.598Z,4.30
2019-02-26T02:50:37.419Z,5.05
2019-02-26T02:52:04.146Z,4.10
2019-02-26T02:53:32.152Z,4.25
2019-02-26T02:54:56.946Z,4.20
2019-02-26T02:56:22.411Z,4.00
2019-02-26T02:57:50.227Z,5.05
2019-02-26T02:59:16.570Z,3.62
2019-02-26T03:00:42.072Z,4.00
2019-02-26T03:02:09.254Z,4.50
2019-02-26T03:03:34.534Z,4.83
2019-02-26T03:04:59.974Z,4.33
2019-02-26T03:06:28.102Z,4.53
2019-02-26T03:07:54.054Z,4.90
2019-02-26T03:09:19.746Z,4.62
2019-02-26T03:10:45.237Z,3.98
2019-02-26T03:12:10.694Z,4.40
2019-02-26T03:13:36.098Z,3.98
2019-02-26T03:15:02.258Z,3.67
2019-02-26T03:16:28.572Z,4.22
2019-02-26T03:17:54.006Z,4.28
2019-02-26T03:19:19.407Z,4.00
2019-02-26T03:20:44.811Z,4.05
2019-02-26T03:22:12.669Z,4.33
2019-02-26T03:23:40.387Z,4.42
2019-02-26T03:25:05.185Z,3.87
2019-02-26T03:26:30.650Z,3.83
2019-02-26T03:27:56.068Z,4.70
2019-02-26T03:29:21.545Z,4.30
2019-02-26T03:30:46.963Z,4.08
2019-02-26T03:32:12.426Z,3.75
2019-02-26T03:33:37.870Z,3.67
2019-02-26T03:35:07.100Z,3.85
2019-02-26T03:36:31.601Z,4.40
2019-02-26T03:37:58.943Z,4.62
2019-02-26T03:39:24.482Z,4.20
2019-02-26T03:40:51.892Z,3.77
2019-02-26T03:42:20.649Z,4.25
2019-02-26T03:43:44.223Z,3.62
2019-02-26T03:45:11.509Z,4.10
2019-02-26T03:46:36.960Z,3.90
2019-02-26T03:48:02.395Z,5.17
2019-02-26T03:49:27.855Z,4.67
2019-02-26T03:50:53.281Z,4.72
2019-02-26T03:52:18.738Z,4.47
2019-02-26T03:53:44.191Z,3.67
2019-02-26T03:55:12.095Z,3.47
2019-02-26T03:56:37.061Z,3.33
2019-02-26T03:58:02.626Z,4.20
2019-02-26T03:59:28.147Z,4.15
2019-02-26T04:00:53.744Z,4.10
2019-02-26T04:02:20.884Z,3.83
2019-02-26T04:03:46.592Z,4.20
2019-02-26T04:05:12.282Z,3.50
2019-02-26T04:06:38.934Z,3.40
2019-02-26T04:08:04.942Z,3.77
2019-02-26T04:09:30.486Z,4.25
2019-02-26T04:10:58.339Z,3.75
2019-02-26T04:12:23.083Z,4.00
2019-02-26T04:13:49.485Z,3.70
2019-02-26T04:15:15.965Z,3.95
2019-02-26T04:16:43.636Z,3.85
2019-02-26T04:18:08.619Z,4.20
2019-02-26T04:19:34.190Z,4.12
2019-02-26T04:21:03.211Z,3.47
2019-02-26T04:22:28.151Z,4.85
2019-02-26T04:23:53.780Z,4.08
2019-02-26T04:25:45.262Z,4.22
2019-02-26T04:27:50.446Z,4.65
2019-02-26T04:29:36.138Z,4.17
2019-02-26T04:31:22.059Z,3.30
2019-02-26T04:33:24.219Z,4.12
2019-02-26T04:35:02.872Z,3.40
2019-02-26T04:36:47.138Z,4.45
2019-02-26T04:38:53.209Z,3.85
2019-02-26T04:40:42.913Z,3.77
2019-02-26T04:42:46.049Z,3.15
2019-02-26T04:45:01.013Z,3.77
2019-02-26T04:46:54.029Z,4.30
2019-02-26T04:48:23.604Z,3.58
2019-02-26T04:49:47.903Z,3.87
2019-02-26T04:51:13.426Z,3.62
2019-02-26T04:52:41.228Z,4.60
2019-02-26T04:54:06.277Z,3.50
2019-02-26T04:55:35.040Z,4.05
2019-02-26T04:56:59.025Z,3.85
2019-02-26T04:58:24.760Z,3.30
2019-02-26T04:59:50.310Z,3.83
2019-02-26T05:01:18.836Z,3.83
2019-02-26T05:02:42.871Z,3.83
2019-02-26T05:04:08.317Z,3.52
2019-02-26T05:05:34.905Z,3.02
2019-02-26T05:07:04.412Z,3.60
2019-02-26T05:08:29.394Z,3.92
2019-02-26T05:09:56.833Z,4.47
2019-02-26T05:11:31.496Z,3.40
2019-02-26T05:12:53.241Z,4.42
2019-02-26T05:14:22.932Z,3.25
2019-02-26T05:15:44.459Z,4.03
2019-02-26T05:17:09.907Z,3.40
2019-02-26T05:18:35.345Z,3.40
2019-02-26T05:20:00.767Z,3.10
2019-02-26T05:21:27.059Z,4.35
2019-02-26T05:22:58.470Z,3.70
2019-02-26T05:24:24.389Z,3.80
2019-02-26T05:25:50.039Z,3.50
2019-02-26T05:27:18.676Z,3.70
2019-02-26T05:28:44.193Z,3.60
2019-02-26T05:30:13.036Z,3.72
2019-02-26T05:31:37.870Z,4.70
2019-02-26T05:33:05.550Z,3.52
2019-02-26T05:34:31.055Z,4.53
2019-02-26T05:35:56.554Z,4.05
2019-02-26T05:37:22.036Z,4.20
2019-02-26T05:38:49.295Z,3.90
2019-02-26T05:40:18.334Z,4.42
2019-02-26T05:41:41.904Z,3.45
2019-02-26T05:43:07.340Z,4.12
2019-02-26T05:44:32.853Z,4.28
2019-02-26T05:46:00.585Z,3.72
2019-02-26T05:47:26.703Z,4.58
2019-02-26T05:48:52.181Z,4.70
2019-02-26T05:50:17.619Z,4.62
2019-02-26T05:51:43.084Z,3.87
2019-02-26T05:53:11.423Z,4.42
2019-02-26T05:54:35.670Z,4.15
2019-02-26T05:56:01.046Z,3.30
2019-02-26T05:57:32.331Z,3.55
2019-02-26T05:58:53.566Z,4.47
2019-02-26T06:00:22.688Z,3.95
2019-02-26T06:01:46.535Z,3.75
2019-02-26T06:03:16.278Z,3.85
2019-02-26T06:04:41.095Z,3.65
2019-02-26T06:06:07.190Z,5.12
2019-02-26T06:07:35.521Z,4.33
2019-02-26T06:09:00.437Z,3.95
2019-02-26T06:10:27.217Z,3.98
2019-02-26T06:11:53.866Z,4.78
2019-02-26T06:13:19.359Z,4.78
2019-02-26T06:14:44.845Z,3.62
2019-02-26T06:16:10.287Z,4.05
2019-02-26T06:17:40.626Z,4.37
2019-02-26T06:19:02.779Z,3.67
2019-02-26T06:20:29.243Z,4.55
2019-02-26T06:21:56.635Z,9.20
2019-02-26T06:23:23.216Z,15.03
2019-02-26T06:24:49.217Z,9.08
2019-02-26T06:26:17.607Z,6.28
2019-02-26T06:27:42.136Z,5.65
2019-02-26T06:29:07.702Z,6.20
2019-02-26T06:30:33.122Z,5.92
2019-02-26T06:32:12.003Z,5.10
2019-02-26T06:33:38.457Z,5.42
2019-02-26T06:35:06.694Z,4.75
2019-02-26T06:36:32.414Z,6.20
2019-02-26T06:37:59.457Z,4.25
2019-02-26T06:39:26.741Z,5.42
2019-02-26T06:40:52.082Z,5.65
2019-02-26T06:42:17.531Z,6.45
2019-02-26T06:43:47.563Z,6.97
2019-02-26T06:45:13.950Z,5.92
2019-02-26T06:46:38.785Z,5.87
2019-02-26T06:48:04.220Z,6.47
2019-02-26T06:49:29.772Z,6.12
2019-02-26T06:50:57.051Z,5.00
2019-02-26T06:52:22.306Z,6.30
2019-02-26T06:53:49.804Z,5.60
2019-02-26T06:55:14.886Z,6.05
2019-02-26T06:56:43.710Z,6.00
2019-02-26T06:58:40.577Z,6.30
2019-02-26T07:00:06.769Z,5.80
2019-02-26T07:01:32.844Z,7.83
2019-02-26T07:03:01.995Z,6.10
2019-02-26T07:04:29.401Z,6.92
2019-02-26T07:05:53.339Z,6.12
2019-02-26T07:07:18.783Z,6.30
2019-02-26T07:08:45.042Z,6.92
2019-02-26T07:10:15.950Z,7.45
2019-02-26T07:11:40.102Z,8.03
2019-02-26T07:13:08.847Z,8.65
2019-02-26T07:14:34.527Z,8.58
2019-02-26T07:16:00.163Z,9.33
2019-02-26T07:17:26.878Z,8.78
2019-02-26T07:18:52.706Z,7.47
2019-02-26T07:20:18.181Z,7.58
2019-02-26T07:21:45.516Z,8.00
2019-02-26T07:23:12.795Z,8.55
2019-02-26T07:24:38.615Z,7.55
2019-02-26T07:26:04.226Z,8.00
2019-02-26T07:27:31.389Z,6.53
2019-02-26T07:28:56.701Z,9.75
2019-02-26T07:30:22.200Z,8.45
2019-02-26T07:31:49.441Z,8.55
2019-02-26T07:33:15.092Z,7.33
2019-02-26T07:34:42.802Z,8.23
2019-02-26T07:36:07.841Z,8.53
2019-02-26T07:37:34.059Z,8.30
2019-02-26T07:39:00.339Z,9.10
2019-02-26T07:40:27.781Z,6.97
2019-02-26T07:41:54.366Z,7.20
2019-02-26T07:43:20.783Z,7.37
2019-02-26T07:44:47.038Z,7.10
2019-02-26T07:46:14.514Z,8.15
2019-02-26T07:47:39.563Z,6.95
2019-02-26T07:49:07.322Z,8.25
2019-02-26T07:50:37.544Z,8.20
2019-02-26T07:52:00.292Z,7.35
2019-02-26T07:53:26.375Z,6.25
2019-02-26T07:54:51.968Z,10.50
2019-02-26T07:56:17.404Z,8.00
2019-02-26T07:57:45.265Z,9.70
2019-02-26T07:59:11.975Z,8.10
2019-02-26T08:00:37.694Z,8.35
2019-02-26T08:02:06.251Z,8.98
2019-02-26T08:03:31.120Z,8.83
2019-02-26T08:04:56.568Z,7.58
2019-02-26T08:06:22.037Z,8.55
2019-02-26T08:07:48.638Z,8.10
2019-02-26T08:09:16.487Z,9.00
2019-02-26T08:10:42.844Z,6.90
2019-02-26T08:12:11.113Z,7.85
2019-02-26T08:13:36.587Z,8.80
2019-02-26T08:15:03.095Z,7.30
2019-02-26T08:16:29.998Z,6.70
2019-02-26T08:17:57.921Z,6.72
2019-02-26T08:19:22.557Z,5.80
2019-02-26T08:20:48.001Z,6.53
2019-02-26T08:22:13.462Z,6.53
2019-02-26T08:23:38.941Z,6.00
2019-02-26T08:25:04.555Z,6.05
2019-02-26T08:26:30.008Z,5.62
2019-02-26T08:27:56.601Z,5.95
2019-02-26T08:29:24.530Z,5.05
2019-02-26T08:30:50.448Z,5.67
2019-02-26T08:32:18.832Z,6.65
2019-02-26T08:33:43.681Z,4.97
2019-02-26T08:35:09.514Z,5.45
2019-02-26T08:36:34.986Z,5.33
2019-02-26T08:38:00.434Z,5.17
2019-02-26T08:39:25.995Z,5.60
2019-02-26T08:40:51.389Z,5.20
2019-02-26T08:42:16.853Z,5.05
2019-02-26T08:43:46.318Z,5.10
2019-02-26T08:45:14.404Z,5.53
2019-02-26T08:46:39.782Z,6.47
2019-02-26T08:48:06.482Z,4.45
2019-02-26T08:49:31.934Z,5.03
2019-02-26T08:51:00.835Z,4.33
2019-02-26T08:52:26.747Z,5.28
2019-02-26T08:53:51.871Z,4.55
2019-02-26T08:55:21.614Z,4.78
2019-02-26T08:56:45.680Z,4.83
2019-02-26T08:58:12.514Z,6.42
2019-02-26T08:59:38.078Z,4.80
2019-02-26T09:01:03.489Z,4.50
2019-02-26T09:02:28.931Z,4.45
2019-02-26T09:03:55.926Z,5.50
2019-02-26T09:05:23.319Z,4.65
2019-02-26T09:06:52.351Z,4.78
2019-02-26T09:08:18.341Z,4.65
2019-02-26T09:09:45.143Z,5.53
2019-02-26T09:11:13.389Z,5.10
2019-02-26T09:12:39.019Z,5.28
2019-02-26T09:14:07.102Z,5.08
2019-02-26T09:15:33.648Z,5.35
2019-02-26T09:17:00.228Z,4.15
2019-02-26T09:18:28.103Z,4.08
2019-02-26T09:20:06.408Z,3.95
2019-02-26T09:21:22.735Z,3.75
2019-02-26T09:22:50.264Z,3.80
2019-02-26T09:24:14.865Z,3.75
2019-02-26T09:25:40.430Z,3.60
2019-02-26T09:27:05.918Z,4.35
2019-02-26T09:28:32.080Z,3.77
2019-02-26T09:29:57.655Z,4.35
2019-02-26T09:31:23.057Z,4.55
2019-02-26T09:32:48.654Z,4.45
2019-02-26T09:34:14.106Z,5.20
2019-02-26T09:35:39.565Z,4.72
2019-02-26T09:37:05.773Z,4.75
2019-02-26T09:38:32.177Z,4.87
2019-02-26T09:39:59.256Z,4.92
2019-02-26T09:41:24.780Z,4.93
2019-02-26T09:42:52.299Z,4.08
2019-02-26T09:44:17.505Z,4.37
2019-02-26T09:45:43.617Z,4.70
2019-02-26T09:47:10.115Z,4.40
2019-02-26T09:48:36.521Z,4.03
2019-02-26T09:50:02.765Z,4.23
2019-02-26T09:51:28.705Z,4.40
2019-02-26T09:52:58.264Z,3.50
2019-02-26T09:54:22.637Z,4.13
2019-02-26T09:55:48.097Z,4.57
2019-02-26T09:57:15.564Z,4.10
2019-02-26T09:58:42.808Z,4.37
2019-02-26T10:00:11.387Z,4.60
2019-02-26T10:01:37.902Z,4.27
2019-02-26T10:03:06.165Z,4.40
2019-02-26T10:04:31.054Z,4.50
2019-02-26T10:05:57.903Z,4.30
2019-02-26T10:07:23.644Z,4.80
2019-02-26T10:08:50.864Z,4.70
2019-02-26T10:10:17.580Z,5.37
2019-02-26T10:11:45.069Z,5.10
2019-02-26T10:13:10.361Z,5.10
2019-02-26T10:14:36.642Z,5.10
2019-02-26T10:16:04.614Z,3.97
2019-02-26T10:17:33.437Z,4.53
2019-02-26T10:18:58.382Z,4.17
2019-02-26T10:20:27.848Z,4.27
2019-02-26T10:21:51.067Z,4.57
2019-02-26T10:23:16.483Z,5.20
2019-02-26T10:24:42.002Z,5.53
2019-02-26T10:26:10.010Z,4.70
2019-02-26T10:27:36.090Z,5.37
2019-02-26T10:29:04.507Z,5.00
2019-02-26T10:30:31.423Z,4.70
2019-02-26T10:31:56.708Z,4.50
2019-02-26T10:33:22.295Z,5.07
2019-02-26T10:34:47.771Z,4.60
2019-02-26T10:36:15.522Z,5.53
2019-02-26T10:37:48.706Z,5.53
2019-02-26T10:39:15.546Z,5.03
2019-02-26T10:40:53.275Z,5.00
2019-02-26T10:42:08.479Z,4.73
2019-02-26T10:43:33.964Z,4.67
2019-02-26T10:44:59.425Z,5.03
2019-02-26T10:46:24.876Z,5.83
2019-02-26T10:47:51.339Z,6.00
2019-02-26T10:49:17.343Z,4.80
2019-02-26T10:50:45.838Z,5.10
2019-02-26T10:52:10.955Z,5.33
2019-02-26T10:53:37.365Z,4.90
2019-02-26T10:55:03.003Z,5.00
2019-02-26T10:56:30.565Z,4.90
2019-02-26T10:57:58.375Z,5.30
2019-02-26T10:59:23.566Z,5.37
2019-02-26T11:00:53.179Z,4.70
2019-02-26T11:02:20.626Z,5.33
2019-02-26T11:03:47.248Z,5.00
2019-02-26T11:05:14.858Z,6.00
2019-02-26T11:06:43.755Z,4.97
2019-02-26T11:08:09.402Z,6.03
2019-02-26T11:09:35.130Z,5.57
2019-02-26T11:11:00.617Z,5.67
2019-02-26T11:12:28.526Z,6.20
2019-02-26T11:13:53.828Z,5.87
2019-02-26T11:15:21.596Z,5.93
2019-02-26T11:16:46.672Z,6.37
2019-02-26T11:18:14.850Z,5.90
2019-02-26T11:19:41.762Z,5.40
2019-02-26T11:21:06.505Z,5.73
2019-02-26T11:22:31.934Z,5.37
2019-02-26T11:23:58.401Z,6.20
2019-02-26T11:25:27.261Z,5.60
2019-02-26T11:26:51.454Z,5.90
2019-02-26T11:28:16.984Z,5.83
2019-02-26T11:29:42.418Z,7.60
2019-02-26T11:31:09.018Z,7.30
2019-02-26T11:32:37.959Z,6.50
2019-02-26T11:34:04.042Z,6.80
2019-02-26T11:35:29.219Z,6.93
2019-02-26T11:36:56.106Z,7.12
2019-02-26T11:38:22.281Z,6.80
2019-02-26T11:39:47.880Z,7.23
2019-02-26T11:41:13.355Z,6.62
2019-02-26T11:42:39.988Z,6.92
2019-02-26T11:44:10.036Z,6.50
2019-02-26T11:45:35.176Z,6.17
2019-02-26T11:47:00.268Z,6.80
2019-02-26T11:48:26.352Z,6.15
2019-02-26T11:49:52.849Z,6.00
2019-02-26T11:51:19.990Z,6.85
2019-02-26T11:52:45.786Z,6.03
2019-02-26T11:54:14.397Z,5.90
2019-02-26T11:55:38.606Z,5.47
2019-02-26T11:57:05.165Z,5.95
2019-02-26T11:58:31.203Z,6.60
2019-02-26T11:59:57.118Z,5.97
2019-02-26T12:01:23.761Z,6.13
2019-02-26T12:02:49.350Z,5.70
2019-02-26T12:04:17.045Z,5.87
2019-02-26T12:05:44.111Z,5.87
2019-02-26T12:07:10.401Z,5.40
2019-02-26T12:08:37.287Z,5.37
2019-02-26T12:10:09.269Z,6.03
2019-02-26T12:11:30.355Z,5.40
2019-02-26T12:12:56.734Z,5.53
2019-02-26T12:14:22.928Z,5.47
2019-02-26T12:15:48.387Z,5.70
2019-02-26T12:17:13.863Z,6.53
2019-02-26T12:18:41.486Z,6.83
2019-02-26T12:20:08.102Z,6.27
2019-02-26T12:21:34.586Z,5.70
2019-02-26T12:23:00.643Z,6.25
2019-02-26T12:24:26.681Z,6.15
2019-02-26T12:25:55.419Z,5.12
2019-02-26T12:27:20.920Z,6.20
2019-02-26T12:28:47.301Z,5.33
2019-02-26T12:30:16.304Z,5.83
2019-02-26T12:31:42.818Z,5.50
2019-02-26T12:33:09.853Z,6.03
2019-02-26T12:34:38.385Z,5.07
2019-02-26T12:36:04.607Z,7.12
2019-02-26T12:37:29.727Z,6.20
2019-02-26T12:38:56.489Z,7.20
2019-02-26T12:40:25.179Z,5.63
2019-02-26T12:41:49.405Z,7.40
2019-02-26T12:43:16.325Z,5.35
2019-02-26T12:44:44.814Z,6.17
2019-02-26T12:46:09.127Z,6.07
2019-02-26T12:47:34.602Z,6.08
2019-02-26T12:49:02.755Z,5.25
2019-02-26T12:50:29.749Z,6.58
2019-02-26T12:51:56.781Z,6.00
2019-02-26T12:53:23.630Z,6.10
2019-02-26T12:54:48.574Z,6.08
2019-02-26T12:56:14.949Z,7.12
2019-02-26T12:57:40.418Z,5.90
2019-02-26T12:59:07.121Z,5.97
2019-02-26T13:00:34.972Z,7.00
2019-02-26T13:02:00.223Z,7.35
2019-02-26T13:03:25.679Z,6.53
2019-02-26T13:04:53.360Z,7.00
2019-02-26T13:06:19.467Z,5.65
2019-02-26T13:07:45.454Z,6.20
2019-02-26T13:09:11.031Z,6.83
2019-02-26T13:10:38.475Z,6.45
2019-02-26T13:12:03.575Z,5.90
2019-02-26T13:13:29.006Z,6.67
2019-02-26T13:15:01.727Z,7.33
2019-02-26T13:16:21.642Z,6.60
2019-02-26T13:17:48.903Z,7.05
2019-02-26T13:19:18.322Z,6.20
2019-02-26T13:20:41.332Z,6.95
2019-02-26T13:22:11.942Z,7.28
2019-02-26T13:23:33.924Z,7.70
2019-02-26T13:25:00.261Z,6.85
2019-02-26T13:26:26.474Z,5.83
2019-02-26T13:27:51.969Z,7.03
2019-02-26T13:29:17.427Z,6.92
2019-02-26T13:30:42.967Z,7.25
2019-02-26T13:32:13.113Z,7.28
2019-02-26T13:33:38.504Z,6.00
2019-02-26T13:35:07.413Z,7.25
2019-02-26T13:36:29.737Z,7.10
2019-02-26T13:37:55.409Z,7.45
2019-02-26T13:39:25.435Z,7.17
2019-02-26T13:40:48.005Z,6.83
2019-02-26T13:42:18.165Z,6.85
2019-02-26T13:43:40.832Z,7.12
2019-02-26T13:45:07.885Z,7.55
2019-02-26T13:46:33.477Z,6.62
2019-02-26T13:48:01.316Z,7.08
2019-02-26T13:49:26.134Z,8.10
2019-02-26T13:50:51.591Z,6.67
2019-02-26T13:52:17.173Z,5.97
2019-02-26T13:53:42.620Z,7.10
2019-02-26T13:55:09.283Z,8.45
2019-02-26T13:56:34.739Z,6.53
2019-02-26T13:58:14.257Z,8.20
2019-02-26T13:59:38.982Z,7.58
2019-02-26T14:01:05.901Z,6.90
2019-02-26T14:02:31.317Z,7.45
2019-02-26T14:03:56.719Z,6.58
2019-02-26T14:05:22.415Z,6.90
2019-02-26T14:06:47.867Z,7.35
2019-02-26T14:08:13.446Z,7.42
2019-02-26T14:09:38.891Z,6.85
2019-02-26T14:11:04.644Z,7.12
2019-02-26T14:12:30.095Z,7.62
2019-02-26T14:13:55.759Z,8.25
2019-02-26T14:15:22.836Z,7.78
2019-02-26T14:16:48.622Z,7.83
2019-02-26T14:18:14.080Z,7.05
2019-02-26T14:19:39.538Z,6.47
2019-02-26T14:21:05.112Z,8.00
2019-02-26T14:22:30.610Z,6.05
2019-02-26T14:23:56.058Z,6.50
2019-02-26T14:25:21.802Z,7.28
2019-02-26T14:26:47.494Z,7.72
2019-02-26T14:28:12.996Z,7.72
2019-02-26T14:29:38.476Z,7.72
2019-02-26T14:31:03.920Z,6.85
2019-02-26T14:32:29.343Z,6.53
2019-02-26T14:33:54.831Z,7.67
2019-02-26T14:35:20.352Z,6.95
2019-02-26T14:36:45.814Z,5.97
2019-02-26T14:38:11.463Z,7.00
2019-02-26T14:39:37.091Z,8.18
2019-02-26T14:41:02.751Z,7.97
2019-02-26T14:42:28.343Z,6.85
2019-02-26T14:43:53.762Z,7.53
2019-02-26T14:45:19.386Z,7.17
2019-02-26T14:46:46.537Z,7.35
2019-02-26T14:48:13.337Z,5.95
2019-02-26T14:49:38.993Z,7.08
2019-02-26T14:51:04.567Z,8.18
2019-02-26T14:52:30.017Z,6.15
2019-02-26T14:53:55.765Z,6.33
2019-02-26T14:55:21.477Z,6.30
2019-02-26T14:56:46.921Z,6.50
2019-02-26T14:58:12.366Z,5.83
2019-02-26T14:59:37.786Z,7.00
2019-02-26T15:01:03.919Z,7.45
2019-02-26T15:02:29.386Z,7.80
2019-02-26T15:03:54.835Z,6.83
2019-02-26T15:05:20.412Z,7.92
2019-02-26T15:06:46.003Z,7.30
2019-02-26T15:08:11.434Z,5.83
2019-02-26T15:09:37.167Z,6.95
2019-02-26T15:11:02.638Z,6.33
2019-02-26T15:12:28.568Z,6.62
2019-02-26T15:13:54.025Z,6.97
2019-02-26T15:15:20.561Z,6.40
2019-02-26T15:16:46.152Z,5.95
2019-02-26T15:18:11.571Z,6.03
2019-02-26T15:19:49.210Z,6.10
2019-02-26T15:21:04.171Z,6.62
2019-02-26T15:22:29.642Z,6.80
2019-02-26T15:23:55.155Z,6.85
2019-02-26T15:25:21.948Z,6.55
2019-02-26T15:26:47.471Z,7.55
2019-02-26T15:28:12.869Z,6.55
2019-02-26T15:29:38.347Z,6.62
2019-02-26T15:31:03.942Z,7.85
2019-02-26T15:32:29.445Z,6.00
2019-02-26T15:33:56.144Z,5.85
2019-02-26T15:35:21.660Z,6.00
2019-02-26T15:36:47.087Z,5.75
2019-02-26T15:38:12.596Z,5.55
2019-02-26T15:39:38.079Z,6.22
2019-02-26T15:41:03.560Z,5.80
2019-02-26T15:42:29.056Z,6.03
2019-02-26T15:43:56.382Z,5.95
2019-02-26T15:45:23.932Z,5.90
2019-02-26T15:46:49.446Z,6.60
2019-02-26T15:48:15.047Z,5.95
2019-02-26T15:49:40.538Z,6.62
2019-02-26T15:51:14.078Z,6.45
2019-02-26T15:52:33.095Z,5.72
2019-02-26T15:53:59.544Z,6.47
2019-02-26T15:55:25.906Z,6.72
2019-02-26T15:56:52.560Z,6.70
2019-02-26T15:58:18.057Z,7.53
2019-02-26T15:59:47.476Z,6.80
2019-02-26T16:01:15.184Z,6.75
2019-02-26T16:02:40.670Z,6.00
2019-02-26T16:04:06.299Z,6.60
2019-02-26T16:05:35.253Z,6.22
2019-02-26T16:07:01.881Z,6.55
2019-02-26T16:08:34.412Z,6.40
2019-02-26T16:09:54.603Z,6.12
2019-02-26T16:11:20.061Z,7.37
2019-02-26T16:12:45.493Z,7.85
2019-02-26T16:14:10.980Z,7.10
2019-02-26T16:15:37.184Z,6.65
2019-02-26T16:17:02.625Z,5.58
2019-02-26T16:18:29.614Z,5.95
2019-02-26T16:19:55.291Z,6.40
2019-02-26T16:21:20.747Z,6.30
2019-02-26T16:22:46.345Z,5.90
2019-02-26T16:24:12.669Z,7.87
2019-02-26T16:25:38.252Z,5.60
2019-02-26T16:27:03.679Z,5.90
2019-02-26T16:28:29.402Z,5.30
2019-02-26T16:29:54.889Z,5.90
2019-02-26T16:31:20.912Z,6.12
2019-02-26T16:32:46.604Z,4.47
2019-02-26T16:34:12.134Z,5.80
2019-02-26T16:35:37.643Z,6.40
2019-02-26T16:37:07.128Z,5.95
2019-02-26T16:38:30.463Z,5.58
2019-02-26T16:39:58.187Z,6.30
2019-02-26T16:41:24.090Z,5.65
2019-02-26T16:42:49.683Z,5.60
2019-02-26T16:44:16.654Z,6.33
2019-02-26T16:45:42.085Z,5.42
2019-02-26T16:47:07.907Z,6.12
2019-02-26T16:48:33.530Z,5.58
2019-02-26T16:50:12.017Z,6.53
2019-02-26T16:51:26.252Z,5.90
2019-02-26T16:52:51.835Z,5.70
2019-02-26T16:54:17.389Z,5.45
2019-02-26T16:55:42.919Z,6.00
2019-02-26T16:57:08.374Z,4.70
2019-02-26T16:58:35.613Z,4.75
2019-02-26T17:00:01.062Z,4.92
2019-02-26T17:01:26.626Z,5.40
2019-02-26T17:02:52.153Z,4.92
2019-02-26T17:04:17.597Z,5.50
2019-02-26T17:05:47.265Z,5.40
2019-02-26T17:07:10.415Z,5.10
2019-02-26T17:08:35.826Z,5.40
2019-02-26T17:10:01.371Z,5.62
2019-02-26T17:11:27.147Z,4.70
2019-02-26T17:12:54.495Z,5.12
2019-02-26T17:14:21.753Z,5.12
2019-02-26T17:15:47.384Z,5.53
2019-02-26T17:17:12.787Z,5.92
2019-02-26T17:18:40.555Z,6.00
2019-02-26T17:20:05.879Z,5.87
2019-02-26T17:21:31.364Z,6.40
2019-02-26T17:22:56.980Z,4.62
2019-02-26T17:24:22.666Z,5.08
2019-02-26T17:25:48.263Z,6.30
2019-02-26T17:27:13.895Z,6.08
2019-02-26T17:28:41.631Z,6.05
2019-02-26T17:30:06.774Z,6.08
2019-02-26T17:31:32.761Z,6.17
2019-02-26T17:32:58.318Z,5.70
2019-02-26T17:34:23.782Z,6.30
2019-02-26T17:35:49.239Z,5.20
2019-02-26T17:37:14.668Z,5.80
2019-02-26T17:38:40.122Z,5.78
2019-02-26T17:40:06.433Z,6.92
2019-02-26T17:41:31.899Z,6.05
2019-02-26T17:42:57.347Z,7.37
2019-02-26T17:44:22.807Z,6.78
2019-02-26T17:45:48.230Z,6.60
2019-02-26T17:47:13.695Z,6.85
2019-02-26T17:48:43.478Z,6.78
2019-02-26T17:50:09.652Z,6.13
2019-02-26T17:51:34.651Z,5.47
2019-02-26T17:53:00.102Z,5.72
2019-02-26T17:54:25.533Z,7.10
2019-02-26T17:55:50.993Z,6.42
2019-02-26T17:57:16.431Z,6.67
2019-02-26T17:58:43.998Z,6.40
2019-02-26T18:00:11.804Z,6.50
2019-02-26T18:01:37.382Z,6.65
2019-02-26T18:03:06.416Z,7.47
2019-02-26T18:04:29.867Z,7.45
2019-02-26T18:05:55.471Z,7.65
2019-02-26T18:07:21.560Z,6.95
2019-02-26T18:08:46.991Z,7.15
2019-02-26T18:10:14.441Z,7.55
2019-02-26T18:11:39.896Z,8.60
2019-02-26T18:13:05.560Z,7.45
2019-02-26T18:14:32.860Z,8.75
2019-02-26T18:16:00.204Z,10.10
2019-02-26T18:17:25.174Z,8.35
2019-02-26T18:18:50.756Z,8.60
2019-02-26T18:20:17.632Z,8.15
2019-02-26T18:21:43.549Z,9.65
2019-02-26T18:23:09.471Z,8.00
2019-02-26T18:24:41.551Z,7.03
2019-02-26T18:26:17.639Z,6.70
2019-02-26T18:27:40.506Z,8.15
2019-02-26T18:29:06.110Z,7.67
2019-02-26T18:30:31.879Z,7.20
2019-02-26T18:31:57.328Z,7.55
2019-02-26T18:33:25.469Z,7.62
2019-02-26T18:34:51.000Z,6.78
2019-02-26T18:36:16.495Z,7.58
2019-02-26T18:37:46.421Z,7.40
2019-02-26T18:39:10.534Z,6.80
2019-02-26T18:40:36.069Z,7.70
2019-02-26T18:42:07.572Z,8.30
2019-02-26T18:43:31.543Z,7.83
2019-02-26T18:44:56.982Z,7.20
2019-02-26T18:46:23.167Z,6.87
2019-02-26T18:47:48.672Z,8.50
2019-02-26T18:49:14.213Z,10.05
2019-02-26T18:50:39.637Z,9.00
2019-02-26T18:52:08.499Z,8.10
2019-02-26T18:53:32.146Z,8.28
2019-02-26T18:54:57.606Z,10.08
2019-02-26T18:56:23.039Z,8.80
2019-02-26T18:57:48.592Z,8.73
2019-02-26T18:59:14.034Z,8.28
2019-02-26T19:00:39.578Z,8.38
2019-02-26T19:02:05.026Z,8.70
2019-02-26T19:03:30.611Z,8.43
2019-02-26T19:04:56.059Z,8.90
2019-02-26T19:06:21.603Z,8.55
2019-02-26T19:07:47.170Z,7.53
2019-02-26T19:09:12.858Z,6.87
2019-02-26T19:10:38.299Z,6.85
2019-02-26T19:12:03.762Z,7.45
2019-02-26T19:13:29.311Z,7.45
2019-02-26T19:14:54.754Z,7.87